Terminal Aerodrome Forecast
Issued by NWS

Home | Current Version | Previous Version | Graphics & Text | Print | Product List | Glossary On
Versions: 1 2 3 4 5 6 7 8 9 10 11 12 13 14 15 16 17 18 19
000
FTUS43 KGRB 180300 AAA
TAFAUW
TAF AMD
KAUW 180326Z 1803/1824 04008KT P6SM SCT013 BKN040
      TEMPO 1804/1807 BKN013 BKN020
     FM180700 07006KT P6SM SCT013 BKN020
     FM181600 11006KT P6SM BKN025
     FM181800 12005KT P6SM SCT030 BKN050=

USA.gov is the U.S. government's official web portal to all federal, state and local government web resources and services.